Time;durP1;ratioP1;P1;durP2;ratioP2;P2;SDS_P1;SDS_P2;PMS_P1;PMS_P2;Temp;Humidity;BMP_temperature;BMP_pressure;BME280_temperature;BME280_humidity;BME280_pressure;Samples;Min_cycle;Max_cycle;Signal;HPM_P1;HPM_P2
2022/05/04 00:01:31;;;;;;;5.80;5.10;;;;;;;;;;4922202;29;20529;-92
2022/05/04 00:03:57;;;;;;;5.15;4.65;;;;;;;;;;4938881;23;20044;-91
2022/05/04 00:06:24;;;;;;;7.57;5.32;;;;;;;;;;4922154;29;20024;-91
2022/05/04 00:08:50;;;;;;;6.35;5.75;;;;;;;;;;4921803;29;20030;-90
2022/05/04 00:11:17;;;;;;;5.95;5.05;;;;;;;;;;4921807;29;20092;-91
2022/05/04 00:13:43;;;;;;;6.75;5.30;;;;;;;;;;4922133;29;20031;-90
2022/05/04 00:16:13;;;;;;;6.10;5.03;;;;;;;;;;4921378;29;20036;-91
2022/05/04 00:21:09;;;;;;;6.28;5.30;;;;;;;;;;4956901;29;20086;-92
2022/05/04 00:23:35;;;;;;;7.25;5.05;;;;;;;;;;4940835;29;20086;-91
2022/05/04 00:26:01;;;;;;;7.97;5.40;;;;;;;;;;4942045;29;20034;-90
2022/05/04 00:28:27;;;;;;;7.15;5.13;;;;;;;;;;4957496;29;20028;-93
2022/05/04 00:34:14;;;;;;;6.93;6.23;;;;;;;;;;4957671;29;20027;-92
2022/05/04 00:36:40;;;;;;;7.20;5.78;;;;;;;;;;4940434;29;20790;-91
2022/05/04 00:39:06;;;;;;;7.53;5.78;;;;;;;;;;4940305;29;20027;-90
2022/05/04 00:41:33;;;;;;;6.35;5.40;;;;;;;;;;4940108;29;20035;-89
2022/05/04 00:43:59;;;;;;;10.10;5.05;;;;;;;;;;4940371;29;20036;-90
2022/05/04 00:46:25;;;;;;;6.57;5.10;;;;;;;;;;4940614;29;20023;-91
2022/05/04 00:51:54;;;;;;;6.17;5.10;;;;;;;;;;4957193;29;20090;-89
2022/05/04 00:54:43;;;;;;;6.05;5.43;;;;;;;;;;4939815;29;20278;-92
2022/05/04 01:03:06;;;;;;;7.10;4.80;;;;;;;;;;4963836;29;20054;-92
2022/05/04 01:05:41;;;;;;;5.93;5.30;;;;;;;;;;4941368;29;20661;-93
2022/05/04 01:08:13;;;;;;;8.18;5.57;;;;;;;;;;4939868;29;20075;-92
2022/05/04 01:10:43;;;;;;;8.13;5.53;;;;;;;;;;4939613;29;20037;-92
2022/05/04 01:13:12;;;;;;;5.18;4.68;;;;;;;;;;4939649;29;20059;-92
2022/05/04 01:15:38;;;;;;;7.78;5.60;;;;;;;;;;4939736;29;20027;-90
2022/05/04 01:18:04;;;;;;;7.38;5.30;;;;;;;;;;4939737;29;20035;-90
2022/05/04 01:20:31;;;;;;;9.63;5.20;;;;;;;;;;4939314;29;20051;-89
2022/05/04 01:22:57;;;;;;;6.10;4.97;;;;;;;;;;4939713;29;20042;-92
2022/05/04 01:25:41;;;;;;;8.80;5.10;;;;;;;;;;4939326;29;20039;-92
2022/05/04 01:28:10;;;;;;;8.88;5.20;;;;;;;;;;4941286;29;20031;-92
2022/05/04 01:30:36;;;;;;;6.50;5.90;;;;;;;;;;4939429;29;20122;-90
2022/05/04 01:33:12;;;;;;;6.07;5.47;;;;;;;;;;4939688;29;20039;-92
2022/05/04 01:35:38;;;;;;;7.38;5.70;;;;;;;;;;4939819;29;20496;-90
2022/05/04 01:38:13;;;;;;;11.32;5.70;;;;;;;;;;4939553;29;20019;-92
2022/05/04 01:40:43;;;;;;;6.82;5.40;;;;;;;;;;4942278;29;20103;-92
2022/05/04 01:43:12;;;;;;;7.68;5.35;;;;;;;;;;4939073;29;20039;-92
2022/05/04 01:45:38;;;;;;;7.90;5.93;;;;;;;;;;4939927;29;20028;-92
2022/05/04 01:48:05;;;;;;;6.65;6.05;;;;;;;;;;4939907;29;20047;-90
2022/05/04 01:50:49;;;;;;;6.85;5.85;;;;;;;;;;4940152;29;20023;-92
2022/05/04 01:53:18;;;;;;;6.70;6.00;;;;;;;;;;4940639;29;20526;-92
2022/05/04 01:55:45;;;;;;;5.70;5.10;;;;;;;;;;4907949;23;20214;-90
2022/05/04 01:58:12;;;;;;;5.82;4.97;;;;;;;;;;4896318;29;20029;-92
2022/05/04 02:00:42;;;;;;;5.32;4.82;;;;;;;;;;4895994;29;20032;-92
2022/05/04 02:03:14;;;;;;;6.20;5.60;;;;;;;;;;4900894;29;20152;-92
2022/05/04 02:05:41;;;;;;;7.68;5.60;;;;;;;;;;4897326;29;20059;-91
2022/05/04 02:08:13;;;;;;;5.63;5.00;;;;;;;;;;4896032;29;20093;-91
2022/05/04 02:10:39;;;;;;;6.53;5.72;;;;;;;;;;4895206;29;20075;-90
2022/05/04 02:13:06;;;;;;;6.10;5.45;;;;;;;;;;4900407;29;20036;-89
2022/05/04 02:15:32;;;;;;;5.60;5.10;;;;;;;;;;4901825;29;20061;-89
2022/05/04 02:18:01;;;;;;;9.75;5.80;;;;;;;;;;4897544;29;20040;-92
2022/05/04 02:20:27;;;;;;;7.90;6.00;;;;;;;;;;4894655;29;20112;-89
2022/05/04 02:22:53;;;;;;;8.68;6.07;;;;;;;;;;4894885;29;20049;-90
2022/05/04 02:25:20;;;;;;;5.88;5.28;;;;;;;;;;4895257;29;20076;-89
2022/05/04 02:27:46;;;;;;;5.95;5.30;;;;;;;;;;4894458;29;20064;-89
2022/05/04 02:30:13;;;;;;;8.25;5.43;;;;;;;;;;4894665;29;20066;-90
2022/05/04 02:32:45;;;;;;;7.00;5.70;;;;;;;;;;4879422;29;20037;-92
2022/05/04 02:37:57;;;;;;;7.18;5.10;;;;;;;;;;4917952;29;20044;-91
2022/05/04 02:40:25;;;;;;;8.05;6.65;;;;;;;;;;4916673;29;20028;-91
2022/05/04 02:42:54;;;;;;;7.18;5.15;;;;;;;;;;4916414;29;20046;-91
2022/05/04 02:45:20;;;;;;;5.93;5.32;;;;;;;;;;4916679;29;20080;-90
2022/05/04 02:47:46;;;;;;;6.93;6.03;;;;;;;;;;4916911;29;20047;-89
2022/05/04 02:50:12;;;;;;;8.13;5.50;;;;;;;;;;4917318;29;20040;-90
2022/05/04 02:52:38;;;;;;;9.40;8.18;;;;;;;;;;4916379;29;20035;-90
2022/05/04 02:55:05;;;;;;;10.73;8.27;;;;;;;;;;4921447;29;20036;-90
2022/05/04 02:57:31;;;;;;;8.18;7.38;;;;;;;;;;4916595;29;20032;-90
2022/05/04 03:00:10;;;;;;;8.18;6.85;;;;;;;;;;4916603;29;20063;-91
2022/05/04 03:02:45;;;;;;;9.35;6.50;;;;;;;;;;4916252;29;20051;-91
2022/05/04 03:05:12;;;;;;;7.47;5.78;;;;;;;;;;4916484;29;20040;-91
2022/05/04 03:07:39;;;;;;;7.80;5.95;;;;;;;;;;4916561;29;20028;-91
2022/05/04 03:10:05;;;;;;;7.88;6.68;;;;;;;;;;4918656;29;20032;-91
2022/05/04 03:12:42;;;;;;;9.23;7.05;;;;;;;;;;4920253;29;20396;-89
2022/05/04 03:15:14;;;;;;;7.13;6.40;;;;;;;;;;4920097;29;20032;-93
2022/05/04 03:17:43;;;;;;;8.70;6.70;;;;;;;;;;4919877;29;20124;-91
2022/05/04 03:20:15;;;;;;;9.30;8.15;;;;;;;;;;4919705;29;20378;-89
2022/05/04 03:22:44;;;;;;;7.95;7.00;;;;;;;;;;4919960;29;20020;-91
2022/05/04 03:25:13;;;;;;;10.95;7.28;;;;;;;;;;4920102;29;20035;-92
2022/05/04 03:27:42;;;;;;;9.77;6.88;;;;;;;;;;4919700;29;20054;-92
2022/05/04 03:30:12;;;;;;;8.80;7.90;;;;;;;;;;4919120;29;20028;-91
2022/05/04 03:32:39;;;;;;;11.88;6.90;;;;;;;;;;4919574;29;20103;-90
2022/05/04 03:35:14;;;;;;;8.68;7.80;;;;;;;;;;4918406;29;20059;-92
2022/05/04 03:37:49;;;;;;;9.10;8.20;;;;;;;;;;4921163;29;20063;-89
2022/05/04 03:40:16;;;;;;;10.85;7.82;;;;;;;;;;4919673;29;20055;-90
2022/05/04 03:42:42;;;;;;;9.20;8.27;;;;;;;;;;4919646;29;20032;-90
2022/05/04 03:45:32;;;;;;;11.43;7.90;;;;;;;;;;4919551;29;20572;-92
2022/05/04 03:47:58;;;;;;;9.43;8.25;;;;;;;;;;4911954;29;20036;-90
2022/05/04 03:50:28;;;;;;;10.00;8.43;;;;;;;;;;4919028;29;20032;-92
2022/05/04 03:52:54;;;;;;;12.45;7.72;;;;;;;;;;4919278;29;20056;-92
2022/05/04 03:55:23;;;;;;;13.23;9.50;;;;;;;;;;4920682;29;20031;-92
2022/05/04 03:57:53;;;;;;;10.20;9.05;;;;;;;;;;4919649;29;20032;-91
2022/05/04 04:00:20;;;;;;;10.68;9.63;;;;;;;;;;4920038;29;20470;-91
2022/05/04 04:05:56;;;;;;;13.00;10.60;;;;;;;;;;4922934;29;20027;-96
2022/05/04 04:08:22;;;;;;;10.70;9.60;;;;;;;;;;4919057;29;20043;-88
2022/05/04 04:10:49;;;;;;;11.55;10.38;;;;;;;;;;4919810;29;20028;-91
2022/05/04 04:13:15;;;;;;;15.45;11.45;;;;;;;;;;4919739;29;20040;-90
2022/05/04 04:15:44;;;;;;;12.13;10.85;;;;;;;;;;4919522;29;20020;-94
2022/05/04 04:18:11;;;;;;;11.75;10.65;;;;;;;;;;4936963;29;20533;-89
2022/05/04 04:23:22;;;;;;;12.30;11.10;;;;;;;;;;4921709;29;20040;-86
2022/05/04 04:25:51;;;;;;;12.02;10.50;;;;;;;;;;4919837;29;20034;-86
2022/05/04 04:28:17;;;;;;;11.63;10.43;;;;;;;;;;4918340;29;20059;-88
2022/05/04 04:30:43;;;;;;;11.52;10.25;;;;;;;;;;4919812;29;20024;-84
2022/05/04 04:33:09;;;;;;;11.38;10.30;;;;;;;;;;4918192;29;20032;-84
2022/05/04 04:35:42;;;;;;;11.25;9.95;;;;;;;;;;4917915;29;20075;-89
2022/05/04 04:38:14;;;;;;;11.45;10.25;;;;;;;;;;4918491;29;20165;-87
2022/05/04 04:40:59;;;;;;;11.27;9.93;;;;;;;;;;4920708;29;20028;-86
2022/05/04 04:43:25;;;;;;;11.43;10.32;;;;;;;;;;4918599;29;20044;-86
2022/05/04 04:45:55;;;;;;;13.10;10.25;;;;;;;;;;4919117;29;20032;-89
2022/05/04 04:48:21;;;;;;;10.10;9.10;;;;;;;;;;4917948;29;20481;-86
2022/05/04 04:50:47;;;;;;;13.65;10.82;;;;;;;;;;4919744;29;20032;-85
2022/05/04 04:56:05;;;;;;;11.20;10.10;;;;;;;;;;5101509;23;20055;-85
2022/05/04 04:58:34;;;;;;;10.38;9.30;;;;;;;;;;4938861;29;20358;-88
2022/05/04 05:01:01;;;;;;;11.43;9.77;;;;;;;;;;4928093;29;20031;-85
2022/05/04 05:12:37;;;;;;;10.85;8.45;;;;;;;;;;4939100;29;20082;-89
2022/05/04 05:20:42;;;;;;;13.95;9.20;;;;;;;;;;4940912;29;20039;-91
2022/05/04 05:23:22;;;;;;;9.75;8.38;;;;;;;;;;4920369;29;20036;-89
2022/05/04 05:25:51;;;;;;;13.32;8.68;;;;;;;;;;4936557;29;20024;-84
2022/05/04 05:28:20;;;;;;;6.75;5.78;;;;;;;;;;4937231;29;20032;-88
2022/05/04 05:30:49;;;;;;;8.50;6.88;;;;;;;;;;4936198;29;20054;-92
2022/05/04 05:33:15;;;;;;;11.50;8.65;;;;;;;;;;4936091;29;20039;-87
2022/05/04 05:35:41;;;;;;;8.60;7.10;;;;;;;;;;4936030;29;20070;-89
2022/05/04 05:41:16;;;;;;;13.80;9.27;;;;;;;;;;4934869;29;20039;-90
2022/05/04 05:43:44;;;;;;;11.18;9.20;;;;;;;;;;4936014;29;20078;-89
2022/05/04 05:46:14;;;;;;;12.70;10.68;;;;;;;;;;4935812;29;20047;-89
2022/05/04 05:48:40;;;;;;;10.55;9.48;;;;;;;;;;4936719;29;20027;-89
2022/05/04 05:51:12;;;;;;;12.10;10.85;;;;;;;;;;4936304;29;20149;-92
2022/05/04 05:53:38;;;;;;;13.15;11.15;;;;;;;;;;4936105;29;20122;-89
2022/05/04 05:56:04;;;;;;;12.52;10.60;;;;;;;;;;4935614;29;20052;-88
2022/05/04 05:58:39;;;;;;;13.45;10.38;;;;;;;;;;4935874;29;20102;-92
2022/05/04 06:01:06;;;;;;;10.77;8.52;;;;;;;;;;4938730;29;20047;-88
2022/05/04 06:03:37;;;;;;;14.32;10.77;;;;;;;;;;4935824;29;20042;-88
2022/05/04 06:06:09;;;;;;;11.98;10.68;;;;;;;;;;4936540;29;20067;-87
2022/05/04 06:08:38;;;;;;;11.38;9.95;;;;;;;;;;4936960;29;20035;-88
2022/05/04 06:11:14;;;;;;;12.25;10.85;;;;;;;;;;4936067;29;20024;-88
2022/05/04 06:13:43;;;;;;;9.90;8.88;;;;;;;;;;4935869;29;20034;-88
2022/05/04 06:16:09;;;;;;;11.02;9.82;;;;;;;;;;4935907;29;20493;-88
2022/05/04 06:18:35;;;;;;;10.70;9.45;;;;;;;;;;4936278;29;20461;-89
2022/05/04 06:21:01;;;;;;;12.85;11.13;;;;;;;;;;4935690;29;20524;-90
2022/05/04 06:23:28;;;;;;;20.73;11.45;;;;;;;;;;4935737;29;20135;-90
2022/05/04 06:25:57;;;;;;;12.55;11.25;;;;;;;;;;4935769;29;20067;-89
2022/05/04 06:28:23;;;;;;;12.77;11.48;;;;;;;;;;4936321;29;20078;-89
2022/05/04 06:36:19;;;;;;;12.93;11.63;;;;;;;;;;4937385;29;20043;-87
2022/05/04 06:38:45;;;;;;;16.42;12.80;;;;;;;;;;4935482;29;20034;-88
2022/05/04 06:41:11;;;;;;;13.93;12.48;;;;;;;;;;4935545;29;20070;-92
2022/05/04 06:43:37;;;;;;;13.05;11.70;;;;;;;;;;4937324;29;20078;-87
2022/05/04 06:46:04;;;;;;;13.55;11.93;;;;;;;;;;4939290;29;20111;-91
2022/05/04 06:48:30;;;;;;;13.25;11.23;;;;;;;;;;4939380;29;20028;-88
2022/05/04 06:50:59;;;;;;;13.18;11.57;;;;;;;;;;4939059;29;20024;-88
2022/05/04 06:53:25;;;;;;;12.80;11.40;;;;;;;;;;4940965;29;20114;-91
2022/05/04 06:55:54;;;;;;;13.43;10.80;;;;;;;;;;4939075;29;20130;-91
2022/05/04 06:58:20;;;;;;;13.15;10.93;;;;;;;;;;4939000;29;20046;-91
2022/05/04 07:00:53;;;;;;;13.15;11.80;;;;;;;;;;4939024;29;20429;-90
2022/05/04 07:03:21;;;;;;;11.23;9.50;;;;;;;;;;4939031;29;20032;-90
2022/05/04 07:05:50;;;;;;;12.30;10.63;;;;;;;;;;4939725;29;20036;-90
2022/05/04 07:08:19;;;;;;;11.43;9.48;;;;;;;;;;4939363;29;20055;-92
2022/05/04 07:16:59;;;;;;;11.27;10.00;;;;;;;;;;4940366;29;20062;-88
2022/05/04 07:22:09;;;;;;;12.02;10.18;;;;;;;;;;4939897;29;20401;-90
2022/05/04 07:24:50;;;;;;;13.93;9.73;;;;;;;;;;4954800;29;20134;-86
2022/05/04 07:27:23;;;;;;;11.82;10.63;;;;;;;;;;4941501;29;20076;-88
2022/05/04 07:30:01;;;;;;;10.98;9.20;;;;;;;;;;4954587;29;20091;-88
2022/05/04 07:32:32;;;;;;;8.18;7.32;;;;;;;;;;4939482;29;20038;-89
2022/05/04 07:38:03;;;;;;;8.68;7.88;;;;;;;;;;4937706;29;20154;-86
2022/05/04 07:43:42;;;;;;;8.30;7.40;;;;;;;;;;4939387;29;20050;-88
2022/05/04 07:46:08;;;;;;;12.15;8.50;;;;;;;;;;4939166;29;20051;-87
2022/05/04 07:48:35;;;;;;;9.68;8.68;;;;;;;;;;4938576;29;20036;-87
2022/05/04 07:51:01;;;;;;;10.63;9.13;;;;;;;;;;4938970;29;20043;-87
2022/05/04 07:53:27;;;;;;;11.07;8.02;;;;;;;;;;4937900;29;20028;-86
2022/05/04 07:55:54;;;;;;;11.57;8.90;;;;;;;;;;4922107;29;20130;-89
2022/05/04 07:58:20;;;;;;;11.02;9.13;;;;;;;;;;4938105;29;20031;-88
2022/05/04 08:06:19;;;;;;;9.68;8.63;;;;;;;;;;4939170;29;20087;-86
2022/05/04 08:08:45;;;;;;;10.00;8.98;;;;;;;;;;4937797;29;20031;-88
2022/05/04 08:11:20;;;;;;;10.38;7.63;;;;;;;;;;4937296;29;20052;-86
2022/05/04 08:13:46;;;;;;;10.23;7.93;;;;;;;;;;4937156;29;20039;-90
2022/05/04 08:16:13;;;;;;;8.48;7.32;;;;;;;;;;4937607;29;20028;-89
2022/05/04 08:18:40;;;;;;;8.32;7.22;;;;;;;;;;4938197;29;20046;-90
2022/05/04 08:21:09;;;;;;;7.57;6.75;;;;;;;;;;4937581;29;20023;-91
2022/05/04 08:26:22;;;;;;;8.10;6.97;;;;;;;;;;4952508;23;20083;-87
2022/05/04 08:28:51;;;;;;;8.50;7.47;;;;;;;;;;4922135;29;20503;-89
2022/05/04 08:31:18;;;;;;;10.20;7.35;;;;;;;;;;4921546;29;20071;-86
2022/05/04 08:33:44;;;;;;;10.48;7.90;;;;;;;;;;4921538;29;20034;-89
2022/05/04 08:36:10;;;;;;;10.23;8.20;;;;;;;;;;4921629;29;20020;-84
2022/05/04 08:41:22;;;;;;;8.35;6.82;;;;;;;;;;4938532;29;20099;-88
2022/05/04 08:55:46;;;;;;;11.02;9.07;;;;;;;;;;4917703;29;20091;-94
2022/05/04 08:58:16;;;;;;;9.57;7.43;;;;;;;;;;4948233;29;20032;-96
2022/05/04 09:00:43;;;;;;;12.05;9.30;;;;;;;;;;4944569;29;20032;-89
2022/05/04 09:03:09;;;;;;;10.18;9.18;;;;;;;;;;4942324;29;20027;-90
2022/05/04 09:05:40;;;;;;;13.10;8.80;;;;;;;;;;4938798;29;20031;-88
2022/05/04 09:08:09;;;;;;;11.20;8.68;;;;;;;;;;4937517;29;20031;-95
2022/05/04 09:10:40;;;;;;;8.20;7.38;;;;;;;;;;4938709;29;20127;-90
2022/05/04 09:13:31;;;;;;;8.02;7.32;;;;;;;;;;4939065;29;20483;-89
2022/05/04 09:15:57;;;;;;;8.38;7.57;;;;;;;;;;4939020;29;20035;-90
2022/05/04 09:18:37;;;;;;;10.13;7.05;;;;;;;;;;4941444;29;20028;-89
2022/05/04 09:21:19;;;;;;;;;;;;;;;;;;;;;
2022/05/04 09:23:49;;;;;;;8.52;7.72;;;;;;;;;;4938451;29;20032;-93
2022/05/04 09:26:25;;;;;;;10.27;7.13;;;;;;;;;;4936642;29;20086;-90
2022/05/04 09:28:52;;;;;;;10.43;8.30;;;;;;;;;;4936996;29;20032;-92
2022/05/04 09:31:18;;;;;;;8.25;7.45;;;;;;;;;;4936304;29;20035;-92
2022/05/04 09:33:52;;;;;;;9.55;7.28;;;;;;;;;;4938163;29;20035;-90
2022/05/04 09:44:53;;;;;;;8.27;7.35;;;;;;;;;;4937008;29;20066;-92
2022/05/04 09:45:21;;;;;;;9.57;8.57;;;;;;;;;;4937104;29;20059;-90
2022/05/04 09:47:54;;;;;;;9.90;7.60;;;;;;;;;;4921199;29;20063;-89
2022/05/04 09:50:43;;;;;;;9.65;8.65;;;;;;;;;;4921614;29;20070;-90
2022/05/04 09:53:28;;;;;;;9.48;8.07;;;;;;;;;;4920380;29;20073;-92
2022/05/04 09:56:03;;;;;;;9.05;7.25;;;;;;;;;;4920382;29;20023;-91
2022/05/04 09:58:30;;;;;;;16.65;8.30;;;;;;;;;;4919756;29;20079;-89
2022/05/04 10:00:59;;;;;;;7.85;6.90;;;;;;;;;;4900485;29;20474;-90
2022/05/04 10:03:25;;;;;;;7.95;6.30;;;;;;;;;;4900400;29;20149;-85
2022/05/04 10:05:59;;;;;;;8.90;7.07;;;;;;;;;;4902245;29;20032;-90
2022/05/04 10:08:25;;;;;;;8.15;7.35;;;;;;;;;;4901480;29;20119;-88
2022/05/04 10:10:55;;;;;;;8.00;7.20;;;;;;;;;;4931620;29;20032;-88
2022/05/04 10:13:22;;;;;;;8.00;6.40;;;;;;;;;;4935631;29;20036;-87
2022/05/04 10:15:51;;;;;;;8.15;6.97;;;;;;;;;;4930523;29;20038;-85
2022/05/04 10:18:28;;;;;;;8.65;7.78;;;;;;;;;;4914347;29;20027;-90
2022/05/04 10:21:05;;;;;;;9.23;6.97;;;;;;;;;;4933832;29;20062;-86
2022/05/04 10:23:35;;;;;;;9.13;6.97;;;;;;;;;;4922281;29;20119;-85
2022/05/04 10:26:04;;;;;;;7.13;6.00;;;;;;;;;;4937284;29;20036;-84
2022/05/04 10:28:36;;;;;;;6.30;5.35;;;;;;;;;;4939869;29;20036;-83
2022/05/04 10:31:07;;;;;;;6.68;5.45;;;;;;;;;;4923816;29;20047;-91
2022/05/04 10:33:37;;;;;;;5.80;5.20;;;;;;;;;;4924620;29;20027;-90
2022/05/04 10:36:19;;;;;;;8.43;5.13;;;;;;;;;;4928329;29;20090;-92
2022/05/04 10:38:45;;;;;;;;;;;;;;;;;;4940922;29;20031;-91
2022/05/04 10:41:12;;;;;;;6.38;5.45;;;;;;;;;;4931316;29;19923;-86
2022/05/04 10:43:38;;;;;;;6.90;5.65;;;;;;;;;;4926522;29;20024;-87
2022/05/04 10:46:12;;;;;;;6.70;6.00;;;;;;;;;;4923454;29;20042;-78
2022/05/04 10:48:45;;;;;;;6.15;4.90;;;;;;;;;;4938005;29;20114;-85
2022/05/04 10:51:18;;;;;;;7.45;5.53;;;;;;;;;;4940753;29;20032;-89
2022/05/04 10:53:48;;;;;;;6.57;5.05;;;;;;;;;;4939709;29;20072;-91
2022/05/04 10:56:20;;;;;;;7.00;6.32;;;;;;;;;;4939274;29;20032;-92
2022/05/04 10:58:59;;;;;;;6.40;5.68;;;;;;;;;;4942274;29;20469;-93
2022/05/04 11:01:30;;;;;;;7.18;5.93;;;;;;;;;;4939259;29;20031;-91
2022/05/04 11:04:15;;;;;;;6.53;5.82;;;;;;;;;;4956772;23;20039;-92
2022/05/04 11:06:47;;;;;;;5.97;5.38;;;;;;;;;;4924107;29;20039;-93
2022/05/04 11:09:16;;;;;;;;;;;;;;;;;;4930715;29;20043;-91
2022/05/04 11:11:43;;;;;;;8.25;6.00;;;;;;;;;;4939728;29;20382;-90
2022/05/04 11:14:10;;;;;;;8.98;6.65;;;;;;;;;;4923279;29;20039;-91
2022/05/04 11:16:37;;;;;;;8.68;7.85;;;;;;;;;;4922481;29;20182;-92
2022/05/04 11:19:07;;;;;;;12.07;8.90;;;;;;;;;;4923384;29;20054;-90
2022/05/04 11:21:33;;;;;;;9.20;7.53;;;;;;;;;;4923160;29;20437;-91
2022/05/04 11:24:07;;;;;;;8.07;7.22;;;;;;;;;;4923113;29;20031;-94
2022/05/04 11:26:42;;;;;;;11.57;10.43;;;;;;;;;;4922258;29;20042;-93
2022/05/04 11:29:10;;;;;;;10.10;9.10;;;;;;;;;;4922448;29;20035;-87
2022/05/04 11:31:55;;;;;;;12.80;11.57;;;;;;;;;;4922479;29;20397;-93
2022/05/04 11:34:28;;;;;;;16.27;10.75;;;;;;;;;;4924202;29;20449;-86
2022/05/04 11:36:56;;;;;;;14.23;11.55;;;;;;;;;;4923105;29;20070;-89
2022/05/04 11:39:23;;;;;;;14.40;9.70;;;;;;;;;;4922798;29;20031;-87
2022/05/04 11:41:56;;;;;;;12.98;10.38;;;;;;;;;;4922822;29;20032;-92
2022/05/04 11:44:24;;;;;;;13.75;10.40;;;;;;;;;;4922376;29;20024;-89
2022/05/04 11:46:54;;;;;;;12.63;10.85;;;;;;;;;;4922113;29;20046;-89
2022/05/04 11:49:24;;;;;;;11.60;10.50;;;;;;;;;;4921451;29;20050;-92
2022/05/04 11:52:14;;;;;;;12.38;11.15;;;;;;;;;;4941905;29;20064;-87
2022/05/04 11:54:59;;;;;;;12.05;10.70;;;;;;;;;;4921175;29;20044;-87
2022/05/04 11:57:25;;;;;;;10.88;9.68;;;;;;;;;;4921660;29;20027;-84
2022/05/04 11:59:51;;;;;;;17.13;9.07;;;;;;;;;;4921904;29;20082;-80
2022/05/04 12:02:17;;;;;;;11.10;10.00;;;;;;;;;;4938857;29;20032;-82
2022/05/04 12:04:47;;;;;;;13.73;8.93;;;;;;;;;;4924529;29;20083;-91
2022/05/04 12:07:13;;;;;;;10.13;8.40;;;;;;;;;;4938557;29;20528;-83
2022/05/04 12:09:43;;;;;;;13.35;9.88;;;;;;;;;;4937492;29;20042;-81
2022/05/04 12:12:09;;;;;;;10.75;9.07;;;;;;;;;;4937209;29;20123;-86
2022/05/04 12:14:36;;;;;;;10.95;9.48;;;;;;;;;;4936310;29;20055;-84
2022/05/04 12:17:02;;;;;;;10.82;9.55;;;;;;;;;;4938194;29;20031;-83
2022/05/04 12:19:30;;;;;;;9.82;8.82;;;;;;;;;;4936847;29;20036;-89
2022/05/04 12:21:56;;;;;;;9.75;8.60;;;;;;;;;;4936390;29;20044;-80
2022/05/04 12:24:23;;;;;;;11.48;8.90;;;;;;;;;;4935634;29;20109;-79
2022/05/04 12:26:49;;;;;;;10.88;8.40;;;;;;;;;;4936346;29;20038;-85
2022/05/04 12:35:01;;;;;;;10.52;7.63;;;;;;;;;;4937847;29;20457;-81
2022/05/04 12:37:33;;;;;;;8.15;7.35;;;;;;;;;;4936641;29;20028;-84
2022/05/04 12:40:01;;;;;;;12.77;7.25;;;;;;;;;;4936696;29;20035;-87
2022/05/04 12:42:28;;;;;;;11.73;6.95;;;;;;;;;;4936490;29;20114;-84
2022/05/04 12:44:55;;;;;;;6.95;6.25;;;;;;;;;;4936746;29;20055;-86
2022/05/04 12:47:24;;;;;;;7.45;6.53;;;;;;;;;;4937025;29;20056;-81
2022/05/04 12:49:50;;;;;;;8.43;7.63;;;;;;;;;;4936368;29;20031;-87
2022/05/04 12:52:20;;;;;;;12.18;7.82;;;;;;;;;;4937101;29;20024;-93
2022/05/04 12:54:46;;;;;;;8.95;7.80;;;;;;;;;;4938958;29;20074;-81
2022/05/04 12:57:14;;;;;;;8.05;7.20;;;;;;;;;;4936189;29;20028;-84
2022/05/04 12:59:40;;;;;;;8.52;7.63;;;;;;;;;;4936089;29;20032;-86
2022/05/04 13:02:06;;;;;;;9.73;7.57;;;;;;;;;;4937003;29;20066;-86
2022/05/04 13:04:32;;;;;;;10.43;7.30;;;;;;;;;;4935639;29;20056;-79
2022/05/04 13:06:59;;;;;;;10.73;7.15;;;;;;;;;;4936745;29;20089;-80
2022/05/04 13:09:28;;;;;;;8.43;7.25;;;;;;;;;;4935880;29;20028;-80
2022/05/04 13:11:54;;;;;;;10.48;6.93;;;;;;;;;;4935270;29;20039;-83
2022/05/04 13:14:20;;;;;;;8.77;5.90;;;;;;;;;;4936574;29;20028;-80
2022/05/04 13:16:46;;;;;;;8.02;6.03;;;;;;;;;;4935646;29;20024;-82
2022/05/04 13:19:12;;;;;;;10.40;6.82;;;;;;;;;;4935771;29;20504;-81
2022/05/04 13:21:38;;;;;;;9.43;6.15;;;;;;;;;;4935454;29;20028;-81
2022/05/04 13:24:05;;;;;;;7.60;5.75;;;;;;;;;;4935669;29;20027;-80
2022/05/04 13:26:33;;;;;;;8.75;5.53;;;;;;;;;;4937306;29;20036;-88
2022/05/04 13:28:59;;;;;;;5.85;5.20;;;;;;;;;;4936175;29;20024;-84
2022/05/04 13:31:25;;;;;;;8.82;6.20;;;;;;;;;;4936261;29;20055;-84
2022/05/04 13:33:52;;;;;;;8.50;5.60;;;;;;;;;;4935422;29;20035;-80
2022/05/04 13:36:18;;;;;;;6.93;5.75;;;;;;;;;;4936649;29;20429;-83
2022/05/04 13:38:44;;;;;;;7.72;4.82;;;;;;;;;;4936992;29;20035;-83
2022/05/04 13:41:10;;;;;;;6.43;5.35;;;;;;;;;;4935878;29;20031;-83
2022/05/04 13:43:37;;;;;;;7.38;4.63;;;;;;;;;;4935684;29;20111;-88
2022/05/04 13:46:03;;;;;;;7.60;4.70;;;;;;;;;;4935318;29;20031;-84
2022/05/04 13:48:32;;;;;;;8.27;4.93;;;;;;;;;;4935203;29;20135;-82
2022/05/04 13:53:42;;;;;;;7.00;4.35;;;;;;;;;;4935972;29;20058;-80
2022/05/04 13:56:09;;;;;;;6.18;4.10;;;;;;;;;;4935002;29;20123;-81
2022/05/04 13:58:36;;;;;;;7.50;4.90;;;;;;;;;;4934705;29;20469;-80
2022/05/04 14:01:02;;;;;;;6.95;4.35;;;;;;;;;;4936276;29;20028;-81
2022/05/04 14:03:28;;;;;;;5.35;4.22;;;;;;;;;;4934756;29;20031;-80
2022/05/04 14:05:54;;;;;;;11.48;4.47;;;;;;;;;;4934715;29;20059;-82
2022/05/04 14:08:21;;;;;;;7.68;4.30;;;;;;;;;;4934550;29;20039;-81
2022/05/04 14:10:49;;;;;;;5.28;4.10;;;;;;;;;;4935164;29;20380;-79
2022/05/04 14:13:26;;;;;;;7.20;4.40;;;;;;;;;;4935193;29;20027;-81
2022/05/04 14:15:56;;;;;;;7.60;5.68;;;;;;;;;;4935177;29;20138;-82
2022/05/04 14:18:23;;;;;;;8.63;4.90;;;;;;;;;;4934949;29;20393;-82
2022/05/04 14:20:51;;;;;;;5.68;4.60;;;;;;;;;;4934986;29;20038;-78
2022/05/04 14:23:17;;;;;;;9.07;4.38;;;;;;;;;;4935240;29;20028;-91
2022/05/04 14:25:43;;;;;;;13.93;4.22;;;;;;;;;;4935610;29;20036;-79
2022/05/04 14:28:09;;;;;;;6.45;3.92;;;;;;;;;;4937962;29;20397;-88
2022/05/04 14:30:36;;;;;;;7.55;4.30;;;;;;;;;;4935420;29;20023;-84
2022/05/04 14:33:03;;;;;;;9.03;5.30;;;;;;;;;;4935747;29;20576;-84
2022/05/04 14:35:29;;;;;;;6.47;4.28;;;;;;;;;;4935063;29;20039;-85
2022/05/04 14:37:55;;;;;;;6.20;3.80;;;;;;;;;;4934975;29;20023;-82
2022/05/04 14:40:23;;;;;;;4.38;3.70;;;;;;;;;;4934838;29;20034;-83
2022/05/04 14:42:51;;;;;;;5.18;3.70;;;;;;;;;;4934558;29;20536;-80
2022/05/04 14:45:17;;;;;;;9.75;3.80;;;;;;;;;;4934881;29;20114;-87
2022/05/04 14:47:44;;;;;;;5.75;4.00;;;;;;;;;;4934774;29;20042;-83
2022/05/04 14:50:10;;;;;;;6.63;3.42;;;;;;;;;;4934705;29;20118;-84
2022/05/04 14:52:36;;;;;;;5.43;3.80;;;;;;;;;;4934745;29;20078;-84
2022/05/04 14:55:02;;;;;;;5.28;3.50;;;;;;;;;;4935738;29;20040;-82
2022/05/04 14:57:31;;;;;;;4.35;3.60;;;;;;;;;;4935992;29;20035;-87
2022/05/04 14:59:57;;;;;;;5.57;3.50;;;;;;;;;;4934654;29;20083;-83
2022/05/04 15:02:23;;;;;;;5.78;3.40;;;;;;;;;;4935495;29;20019;-81
2022/05/04 15:05:01;;;;;;;5.35;3.83;;;;;;;;;;4934917;29;20394;-81
2022/05/04 15:07:28;;;;;;;6.55;3.60;;;;;;;;;;4937750;29;20035;-81
2022/05/04 15:09:55;;;;;;;5.95;3.67;;;;;;;;;;4937483;29;20102;-80
2022/05/04 15:12:21;;;;;;;7.00;3.50;;;;;;;;;;4938737;29;20023;-83
2022/05/04 15:14:47;;;;;;;7.47;4.15;;;;;;;;;;4937199;29;20396;-83
2022/05/04 15:17:13;;;;;;;10.63;4.15;;;;;;;;;;4937826;29;20119;-85
2022/05/04 15:19:39;;;;;;;6.07;4.18;;;;;;;;;;4937925;29;20079;-85
2022/05/04 15:22:06;;;;;;;5.32;3.90;;;;;;;;;;4937835;29;20028;-84
2022/05/04 15:24:32;;;;;;;8.73;4.72;;;;;;;;;;4937656;29;20034;-82
2022/05/04 15:26:58;;;;;;;13.60;7.60;;;;;;;;;;4939496;29;20397;-84
2022/05/04 15:29:24;;;;;;;6.28;4.47;;;;;;;;;;4938906;29;20115;-83
2022/05/04 15:31:51;;;;;;;7.38;3.90;;;;;;;;;;4937621;29;20589;-82
2022/05/04 15:34:17;;;;;;;6.72;3.95;;;;;;;;;;4938478;29;20083;-84
2022/05/04 15:36:44;;;;;;;6.70;3.58;;;;;;;;;;4937500;29;20032;-83
2022/05/04 15:39:10;;;;;;;13.07;5.50;;;;;;;;;;4937913;29;20031;-84
2022/05/04 15:41:42;;;;;;;8.77;4.97;;;;;;;;;;4937967;29;20582;-85
2022/05/04 15:44:09;;;;;;;8.30;4.40;;;;;;;;;;4937634;29;20028;-91
2022/05/04 15:46:36;;;;;;;9.23;3.65;;;;;;;;;;4938928;29;20063;-84
2022/05/04 15:49:03;;;;;;;15.38;4.10;;;;;;;;;;4936951;29;20048;-81
2022/05/04 15:51:32;;;;;;;18.60;6.40;;;;;;;;;;4937171;29;20058;-83
2022/05/04 15:53:59;;;;;;;15.05;6.60;;;;;;;;;;4937583;29;20044;-82
2022/05/04 15:56:25;;;;;;;19.17;7.65;;;;;;;;;;4936597;29;20067;-85
2022/05/04 15:58:51;;;;;;;20.65;8.98;;;;;;;;;;4938251;29;20028;-91
2022/05/04 16:01:18;;;;;;;21.88;8.95;;;;;;;;;;4937599;29;20052;-84
2022/05/04 16:04:00;;;;;;;32.17;11.43;;;;;;;;;;4937425;29;20047;-81
2022/05/04 16:06:31;;;;;;;34.90;10.50;;;;;;;;;;4936668;29;20054;-85
2022/05/04 16:08:58;;;;;;;35.70;11.93;;;;;;;;;;4937434;29;20528;-82
2022/05/04 16:11:25;;;;;;;26.95;12.07;;;;;;;;;;4936905;29;20035;-78
2022/05/04 16:13:51;;;;;;;16.60;9.07;;;;;;;;;;4936761;29;20075;-80
2022/05/04 16:16:18;;;;;;;46.75;16.83;;;;;;;;;;4937458;29;20024;-79
2022/05/04 16:21:44;;;;;;;23.30;15.23;;;;;;;;;;4938083;29;20078;-78
2022/05/04 16:24:13;;;;;;;24.58;15.30;;;;;;;;;;4936323;29;20091;-78
2022/05/04 16:26:40;;;;;;;32.00;15.05;;;;;;;;;;4936302;29;20039;-78
2022/05/04 16:29:07;;;;;;;26.88;14.20;;;;;;;;;;4937342;29;20027;-81
2022/05/04 16:31:33;;;;;;;35.50;13.15;;;;;;;;;;4937590;29;20074;-79